Terminal Aerodrome Forecast
Issued by NWS

Home | Current Version | Previous Version | Text Only | Print | Product List | Glossary On
Versions: 1 2 3 4 5 6 7 8 9 10 11 12 13 14 15 16 17 18 19 20 21 22 23 24
000
FTUS41 KBUF 252100 AAA
TAFIAG
TAF AMD
KIAG 252117Z 2521/2618 24007KT P6SM SCT045 SCT250
     FM260400 21005KT P6SM SCT140
     FM260600 20005KT P6SM BKN110
     FM261500 21013KT P6SM BKN050
     FM261700 22015KT P6SM VCSH BKN045=

USA.gov is the U.S. government's official web portal to all federal, state and local government web resources and services.